Terminal Aerodrome Forecast
Issued by NWS Albany, NY

Home | Current Version | Previous Version | Text Only | Print | Product List | Glossary On
Versions: 1 2 3 4 5 6 7 8 9 10 11 12 13 14 15 16 17
000
FTUS41 KALY 240100 AAA
TAFPOU
TAF AMD
KPOU 240134Z 2402/2424 13006KT P6SM SCT060 BKN250
     FM240400 VRB03KT P6SM VCSH OVC030
     FM240600 VRB03KT 5SM -RA BR BKN015 OVC025 WS020/16040KT
     FM240800 15004KT 2SM -RA BR BKN008 OVC015 WS020/16050KT
     FM241500 17008KT 4SM -RA BR SCT003 OVC008
     FM241800 18010KT 6SM BR SCT008 SCT030
     FM242000 20008KT P6SM SKC=

USA.gov is the U.S. government's official web portal to all federal, state and local government web resources and services.